SIN weather

Singapore Changi Airport
Singapore, South East, Singapore

Public forecast

Using degrees Celsius for public forecast. Weather courtesy of forecast.io.

METAR (pilot weather report)

Retrieved 2017/03/24 21:30 UTC (20 minutes ago):

WSSS 242130Z VRB02KT 8000 FEW018 BKN150 27/25 Q1010 NOSIG

TAF (pilot weather forecast)

Retrieved 2017/03/24 18:09 UTC (4 hours ago):

TAF WSSS 241700Z 2418/2600 04007KT 9999 FEW018CB SCT020 TEMPO 2506/2510 3000 TSRA FEW012CB BKN015